createdAt,value
2018-12-31T00:01:12.020Z,97.90
2018-12-31T00:05:19.638Z,97.80
2018-12-31T00:09:27.017Z,98.20
2018-12-31T00:13:34.295Z,99.80
2018-12-31T00:17:41.020Z,98.40
2018-12-31T00:21:47.759Z,98.40
2018-12-31T00:25:56.714Z,98.30
2018-12-31T00:30:03.097Z,98.30
2018-12-31T00:34:10.135Z,98.00
2018-12-31T00:39:15.448Z,98.10
2018-12-31T00:43:24.976Z,97.60
2018-12-31T00:47:31.794Z,97.90
2018-12-31T00:51:43.635Z,98.10
2018-12-31T00:55:51.401Z,98.20
2018-12-31T00:59:57.943Z,98.40
2018-12-31T01:04:04.510Z,98.30
2018-12-31T01:08:12.638Z,98.40
2018-12-31T01:12:19.857Z,98.50
2018-12-31T01:16:26.539Z,98.70
2018-12-31T01:20:37.324Z,98.50
2018-12-31T01:24:47.839Z,98.50
2018-12-31T01:29:01.762Z,98.30
2018-12-31T01:33:07.799Z,98.20
2018-12-31T01:37:18.408Z,97.60
2018-12-31T01:41:28.828Z,97.80
2018-12-31T01:45:36.239Z,97.80
2018-12-31T01:49:51.389Z,97.70
2018-12-31T01:54:05.964Z,97.40
2018-12-31T01:58:13.382Z,97.30
2018-12-31T02:02:21.988Z,97.00
2018-12-31T02:06:31.539Z,97.00
2018-12-31T02:10:40.292Z,96.70
2018-12-31T02:18:55.817Z,97.00
2018-12-31T02:23:06.502Z,96.90
2018-12-31T02:27:35.203Z,98.10
2018-12-31T02:31:43.747Z,96.40
2018-12-31T02:35:52.476Z,96.30
2018-12-31T02:39:58.922Z,96.30
2018-12-31T02:44:05.348Z,95.90
2018-12-31T02:48:11.121Z,96.40
2018-12-31T02:52:18.028Z,96.10
2018-12-31T02:56:25.571Z,95.90
2018-12-31T03:00:34.352Z,95.90
2018-12-31T03:04:43.287Z,95.70
2018-12-31T03:08:52.100Z,95.50
2018-12-31T03:12:58.511Z,95.60
2018-12-31T03:17:05.279Z,95.50
2018-12-31T03:21:13.342Z,95.60
2018-12-31T03:25:20.225Z,95.50
2018-12-31T03:29:27.842Z,95.50
2018-12-31T03:33:40.160Z,95.00
2018-12-31T03:37:46.633Z,95.20
2018-12-31T03:42:14.484Z,95.90
2018-12-31T03:46:20.942Z,95.00
2018-12-31T03:50:30.534Z,94.70
2018-12-31T03:54:36.835Z,95.20
2018-12-31T03:58:44.171Z,94.80
2018-12-31T04:02:51.403Z,95.30
2018-12-31T04:06:58.118Z,95.40
2018-12-31T04:11:04.790Z,95.40
2018-12-31T04:15:12.682Z,95.00
2018-12-31T04:19:19.215Z,94.70
2018-12-31T04:23:26.147Z,94.90
2018-12-31T04:27:38.044Z,94.90
2018-12-31T04:31:45.817Z,94.60
2018-12-31T04:35:58.144Z,94.80
2018-12-31T04:40:06.684Z,94.60
2018-12-31T04:44:15.354Z,94.60
2018-12-31T04:48:28.062Z,94.30
2018-12-31T04:52:34.536Z,94.10
2018-12-31T04:56:49.739Z,94.40
2018-12-31T05:00:56.076Z,94.70
2018-12-31T05:05:24.674Z,94.60
2018-12-31T05:09:31.138Z,94.70
2018-12-31T05:13:37.668Z,94.30
2018-12-31T05:17:45.509Z,94.30
2018-12-31T05:21:52.038Z,94.00
2018-12-31T05:26:02.693Z,94.10
2018-12-31T05:30:09.127Z,93.90
2018-12-31T05:34:17.869Z,94.00
2018-12-31T05:38:28.521Z,94.10
2018-12-31T05:42:35.574Z,93.90
2018-12-31T05:46:45.878Z,93.50
2018-12-31T05:50:55.960Z,93.70
2018-12-31T05:55:03.279Z,93.10
2018-12-31T05:59:13.290Z,92.70
2018-12-31T06:03:21.412Z,92.00
2018-12-31T06:07:31.984Z,92.00
2018-12-31T06:11:41.835Z,92.10
2018-12-31T06:15:49.725Z,91.40
2018-12-31T06:19:57.549Z,91.80
2018-12-31T06:24:03.914Z,91.40
2018-12-31T06:28:11.548Z,91.60
2018-12-31T06:32:20.392Z,91.10
2018-12-31T06:36:26.747Z,90.50
2018-12-31T06:40:55.229Z,91.70
2018-12-31T06:45:03.074Z,90.20
2018-12-31T06:49:11.617Z,90.90
2018-12-31T06:53:19.388Z,90.70
2018-12-31T06:57:30.647Z,90.60
2018-12-31T07:01:39.126Z,90.60
2018-12-31T07:05:50.675Z,90.80
2018-12-31T07:09:55.975Z,90.80
2018-12-31T07:14:02.531Z,90.30
2018-12-31T07:18:12.409Z,89.30
2018-12-31T07:22:18.758Z,90.00
2018-12-31T07:26:25.229Z,89.80
2018-12-31T07:30:31.195Z,89.20
2018-12-31T07:34:37.929Z,89.40
2018-12-31T07:38:45.376Z,89.50
2018-12-31T07:42:55.436Z,90.00
2018-12-31T07:47:02.144Z,90.20
2018-12-31T07:51:10.508Z,90.40
2018-12-31T07:55:17.284Z,90.50
2018-12-31T07:59:23.726Z,90.20
2018-12-31T08:03:32.240Z,90.30
2018-12-31T08:07:40.169Z,89.30
2018-12-31T08:11:46.630Z,88.50
2018-12-31T08:16:16.653Z,88.10
2018-12-31T08:20:23.105Z,88.50
2018-12-31T08:24:36.912Z,88.60
2018-12-31T08:32:57.812Z,89.30
2018-12-31T08:37:05.926Z,88.30
2018-12-31T08:41:15.619Z,88.80
2018-12-31T08:45:30.769Z,88.90
2018-12-31T08:49:40.663Z,88.60
2018-12-31T08:53:47.143Z,88.90
2018-12-31T08:57:56.226Z,88.80
2018-12-31T09:02:03.105Z,88.80
2018-12-31T09:06:16.023Z,88.00
2018-12-31T09:10:23.571Z,88.80
2018-12-31T09:14:30.371Z,87.80
2018-12-31T09:18:38.564Z,87.10
2018-12-31T09:22:46.288Z,86.50
2018-12-31T09:26:56.848Z,87.30
2018-12-31T09:31:17.666Z,86.60
2018-12-31T09:35:24.476Z,86.80
2018-12-31T09:39:32.049Z,87.00
2018-12-31T09:43:39.944Z,86.60
2018-12-31T09:47:51.442Z,85.70
2018-12-31T09:51:58.837Z,86.10
2018-12-31T09:56:07.819Z,86.40
2018-12-31T10:00:28.418Z,87.90
2018-12-31T10:04:34.759Z,85.20
2018-12-31T10:08:49.415Z,85.20
2018-12-31T10:12:56.158Z,84.60
2018-12-31T10:17:03.775Z,85.30
2018-12-31T10:21:10.215Z,85.00
2018-12-31T10:29:47.289Z,85.20
2018-12-31T10:33:53.739Z,84.90
2018-12-31T10:38:01.832Z,85.00
2018-12-31T10:42:12.132Z,85.60
2018-12-31T10:46:20.403Z,83.90
2018-12-31T10:54:51.598Z,84.00
2018-12-31T10:58:59.312Z,83.90
2018-12-31T11:03:08.660Z,84.20
2018-12-31T11:07:15.752Z,83.30
2018-12-31T11:11:22.208Z,83.20
2018-12-31T11:15:50.061Z,83.20
2018-12-31T11:19:57.904Z,83.00
2018-12-31T11:24:09.150Z,81.10
2018-12-31T11:28:16.044Z,80.70
2018-12-31T11:32:24.764Z,80.90
2018-12-31T11:41:40.049Z,79.30
2018-12-31T11:45:46.635Z,81.40
2018-12-31T11:49:59.699Z,81.70
2018-12-31T11:54:10.365Z,82.90
2018-12-31T11:58:16.740Z,83.30
2018-12-31T12:12:16.135Z,83.40
2018-12-31T12:16:22.765Z,83.00
2018-12-31T12:20:35.945Z,82.90
2018-12-31T12:24:42.593Z,82.60
2018-12-31T12:28:59.412Z,83.20
2018-12-31T12:33:07.373Z,83.90
2018-12-31T12:37:17.340Z,83.10
2018-12-31T12:41:41.405Z,84.10
2018-12-31T12:45:51.236Z,83.30
2018-12-31T12:49:59.449Z,87.10
2018-12-31T13:03:47.463Z,83.40
2018-12-31T13:07:57.856Z,82.80
2018-12-31T13:12:13.325Z,83.20
2018-12-31T13:16:31.346Z,83.20
2018-12-31T13:20:40.953Z,83.50
2018-12-31T13:25:06.870Z,83.90
2018-12-31T13:29:15.180Z,83.30
2018-12-31T13:33:22.733Z,84.00
2018-12-31T13:37:36.333Z,83.80
2018-12-31T13:41:43.113Z,81.80
2018-12-31T13:45:53.286Z,82.50
2018-12-31T13:49:59.771Z,83.30
2018-12-31T13:54:30.633Z,83.70
2018-12-31T13:58:38.695Z,84.20
2018-12-31T14:02:46.078Z,84.70
2018-12-31T14:06:56.592Z,84.70
2018-12-31T14:11:08.365Z,83.70
2018-12-31T14:15:16.583Z,83.80
2018-12-31T14:19:27.840Z,83.70
2018-12-31T14:23:35.517Z,84.30
2018-12-31T14:27:42.819Z,84.20
2018-12-31T14:31:50.608Z,85.20
2018-12-31T14:35:57.799Z,85.30
2018-12-31T14:40:08.247Z,85.20
2018-12-31T14:44:16.917Z,84.70
2018-12-31T14:48:26.814Z,85.00
2018-12-31T14:56:42.644Z,90.00
2018-12-31T15:00:51.268Z,84.80
2018-12-31T15:04:59.168Z,87.00
2018-12-31T15:09:08.405Z,83.90
2018-12-31T15:13:19.122Z,84.70
2018-12-31T15:17:26.229Z,84.80
2018-12-31T15:21:39.792Z,83.20
2018-12-31T15:25:46.600Z,85.40
2018-12-31T15:34:04.215Z,82.00
2018-12-31T15:38:11.187Z,83.30
2018-12-31T15:42:21.329Z,80.60
2018-12-31T15:55:30.255Z,81.30
2018-12-31T15:59:37.782Z,79.60
2018-12-31T16:03:51.143Z,79.30
2018-12-31T16:08:02.732Z,79.50
2018-12-31T16:12:10.940Z,79.00
2018-12-31T16:16:26.182Z,80.80
2018-12-31T16:20:34.007Z,83.90
2018-12-31T16:24:44.057Z,83.20
2018-12-31T16:28:55.398Z,80.00
2018-12-31T16:33:02.521Z,78.80
2018-12-31T16:37:09.217Z,79.10
2018-12-31T16:41:23.338Z,81.90
2018-12-31T16:45:29.674Z,84.70
2018-12-31T16:49:36.934Z,84.00
2018-12-31T16:54:18.528Z,80.20
2018-12-31T16:58:35.957Z,80.80
2018-12-31T17:02:42.852Z,82.60
2018-12-31T17:06:49.511Z,86.40
2018-12-31T17:10:57.454Z,88.20
2018-12-31T17:15:17.235Z,89.00
2018-12-31T17:19:25.686Z,90.10
2018-12-31T17:23:32.910Z,90.50
2018-12-31T17:27:40.758Z,90.40
2018-12-31T17:31:48.114Z,90.60
2018-12-31T17:35:54.659Z,91.00
2018-12-31T17:44:16.013Z,90.90
2018-12-31T17:48:23.292Z,91.30
2018-12-31T17:52:31.740Z,90.60
2018-12-31T17:56:38.642Z,90.80
2018-12-31T18:00:46.045Z,90.70
2018-12-31T18:04:53.519Z,90.50
2018-12-31T18:09:02.792Z,90.60
2018-12-31T18:13:08.916Z,90.70
2018-12-31T18:17:16.106Z,90.50
2018-12-31T18:21:27.469Z,90.50
2018-12-31T18:25:36.464Z,90.50
2018-12-31T18:29:46.593Z,90.80
2018-12-31T18:33:53.272Z,90.60
2018-12-31T18:38:02.920Z,90.50
2018-12-31T18:42:09.504Z,90.00
2018-12-31T18:46:16.947Z,90.10
2018-12-31T18:50:23.930Z,90.20
2018-12-31T18:54:31.783Z,89.40
2018-12-31T18:58:39.577Z,88.90
2018-12-31T19:02:46.137Z,88.60
2018-12-31T19:06:57.400Z,88.00
2018-12-31T19:11:07.370Z,88.10
2018-12-31T19:19:26.602Z,85.80
2018-12-31T19:23:35.538Z,86.40
2018-12-31T19:27:42.238Z,86.10
2018-12-31T19:31:49.671Z,86.40
2018-12-31T19:36:01.651Z,85.70
2018-12-31T19:40:10.910Z,85.40
2018-12-31T19:44:18.700Z,86.50
2018-12-31T19:48:28.339Z,84.40
2018-12-31T19:52:41.309Z,85.80
2018-12-31T19:56:50.175Z,86.50
2018-12-31T20:01:01.806Z,85.90
2018-12-31T20:05:16.721Z,87.00
2018-12-31T20:09:23.918Z,86.90
2018-12-31T20:13:35.950Z,86.50
2018-12-31T20:17:42.613Z,85.50
2018-12-31T20:21:51.680Z,85.10
2018-12-31T20:26:06.178Z,83.70
2018-12-31T20:30:15.585Z,84.00
2018-12-31T20:34:23.227Z,81.70
2018-12-31T20:38:51.227Z,81.80
2018-12-31T20:42:58.441Z,82.60
2018-12-31T20:47:05.184Z,82.50
2018-12-31T20:51:13.408Z,82.50
2018-12-31T20:55:21.337Z,81.40
2018-12-31T21:03:41.931Z,81.70
2018-12-31T21:07:53.032Z,83.20
2018-12-31T21:12:01.053Z,82.60
2018-12-31T21:16:10.286Z,82.40
2018-12-31T21:20:20.938Z,82.60
2018-12-31T21:24:29.280Z,83.00
2018-12-31T21:28:41.266Z,83.90
2018-12-31T21:32:48.975Z,83.90
2018-12-31T21:36:57.505Z,84.80
2018-12-31T21:41:10.158Z,84.40
2018-12-31T21:45:16.790Z,84.70
2018-12-31T21:49:23.400Z,83.80
2018-12-31T21:53:36.049Z,83.70
2018-12-31T21:57:46.872Z,83.70
2018-12-31T22:01:53.479Z,83.60
2018-12-31T22:06:05.496Z,84.10
2018-12-31T22:10:15.170Z,84.50
2018-12-31T22:14:23.248Z,84.00
2018-12-31T22:18:31.563Z,85.10
2018-12-31T22:22:42.679Z,85.90
2018-12-31T22:26:51.624Z,86.70
2018-12-31T22:31:04.082Z,88.00
2018-12-31T22:35:14.476Z,87.70
2018-12-31T22:39:22.770Z,86.50
2018-12-31T22:43:32.312Z,87.00
2018-12-31T22:51:50.154Z,87.90
2018-12-31T22:56:00.875Z,88.50
2018-12-31T23:00:09.796Z,88.20
2018-12-31T23:04:42.006Z,88.80
2018-12-31T23:08:51.448Z,88.80
2018-12-31T23:12:58.530Z,89.70
2018-12-31T23:17:11.061Z,90.00
2018-12-31T23:21:17.499Z,90.10
2018-12-31T23:25:25.317Z,89.60
2018-12-31T23:29:32.826Z,90.30
2018-12-31T23:34:04.932Z,89.70
2018-12-31T23:38:18.438Z,89.90
2018-12-31T23:42:30.012Z,90.00
2018-12-31T23:46:36.654Z,90.30
2018-12-31T23:51:06.121Z,90.10
2018-12-31T23:55:19.824Z,90.10
2018-12-31T23:59:27.277Z,90.40
